Terminal Aerodrome Forecast
Issued by NWS Grand Forks, ND

Home | Current Version | Previous Version | Graphics & Text | Print | Product List | Glossary On
Versions: 1 2 3 4 5 6 7 8 9 10 11 12 13 14 15 16 17
755
FTUS43 KFGF 050537
TAFFAR
TAF
KFAR 050537Z 0506/0606 17008KT P6SM BKN120
     FM051300 17008KT P6SM BKN050
     FM051500 17005KT 4SM -SN BR BKN025
     FM051800 31007KT P6SM BKN050=

USA.gov is the U.S. government's official web portal to all federal, state and local government web resources and services.